Marjorie C — WDH6745 — position and weather

sailwx.info

Track history (hours):
 
Tides and Currents Weather Stations Pressure Air Temp Water Temp Dewpoint Dewpoint Depression Visibility Wind Speed Wind Dir Waves Ship Positions

Marjorie C

Owner: Pasha Hawaii Shipping Company LLC, San Rafael, CA. More information available from US FCC via Universal Licensing System and Coast Guard Vessel Documentation Center.

Last reported at 2017-Sep-24 14:01 UTC. Time now 2017-Sep-24 14:08 UTC.
Position N 32°29' W 117°23'.

Length 210 m; draft 8 m.

Type: Ship. MMSI: 367641230.

Date/timePositionNaut miles runAvg speedWind from/ knotsBaromVisibWave heightAir tempDewpointWater temp
2017-Sep-24 14:01N 32°29' W 117°23'815.1
2017-Sep-24 13:30N 32°23' W 117°27'5 9.6
2017-Sep-24 13:00N 32°19' W 117°30'917.5
2017-Sep-24 12:30N 32°12' W 117°37'1121.7
2017-Sep-24 12:00N 32°04' W 117°45'1020.7
2017-Sep-24 11:30N 31°54' W 117°49'1121.7
2017-Sep-24 11:01N 31°44' W 117°55'1121.4
2017-Sep-24 10:30N 31°35' W 118°01'1121.2
2017-Sep-24 10:00N 31°26' W 118°07'1020.4
2017-Sep-24 09:30N 31°19' W 118°16'1021.0
2017-Sep-24 09:00N 31°11' W 118°24'1121.0
2017-Sep-24 08:30N 31°03' W 118°31'1020.6
2017-Sep-24 08:00N 30°57' W 118°41'1020.6
2017-Sep-24 07:30N 30°51' W 118°52'1020.4
2017-Sep-24 07:00N 30°46' W 119°02'1120.8
2017-Sep-24 06:29N 30°43' W 119°14'8421.3
2017-Sep-24 02:31N 30°21' W 120°48'121.0
2017-Sep-24 02:28N 30°21' W 120°50'1021.0
2017-Sep-24 02:00N 30°18' W 121°00'75819.9
2017-Sep-22 12:00N 27°00' W 134°54'72030.0 060 / 201019.810.8 21.117.426.3
2017-Sep-21 12:00N 23°48' W 147°42'8414.0 050 / 161019.0 22.218.728.6
2017-Sep-21 06:00N 24°06' W 146°12'22618.9 080 / 201019.9 5.4 23.817.828.0
2017-Sep-20 18:00N 23°12' W 150°12'   070 / 181019.010.8 25.017.029.5
2017-Sep-15 17:00N 28°42' W 137°12'   060 / 131023.010.8 22.216.725.2
Track history (hours):
 
Tides and Currents Weather Stations Pressure Air Temp Water Temp Dewpoint Dewpoint Depression Visibility Wind Speed Wind Dir Waves Ship Positions

Marjorie C

Owner: Pasha Hawaii Shipping Company LLC, San Rafael, CA. More information available from US FCC via Universal Licensing System and Coast Guard Vessel Documentation Center.

Last reported at 2017-Sep-24 14:01 UTC. Time now 2017-Sep-24 14:08 UTC.
Position N 32°29' W 117°23'.

Length 210 m; draft 8 m.

Type: Ship. MMSI: 367641230.

Date/timePositionNaut miles runAvg speedWind from/ knotsBaromVisibWave heightAir tempDewpointWater temp
2017-Sep-24 14:01N 32°29' W 117°23'815.1
2017-Sep-24 13:30N 32°23' W 117°27'5 9.6
2017-Sep-24 13:00N 32°19' W 117°30'917.5
2017-Sep-24 12:30N 32°12' W 117°37'1121.7
2017-Sep-24 12:00N 32°04' W 117°45'1020.7
2017-Sep-24 11:30N 31°54' W 117°49'1121.7
2017-Sep-24 11:01N 31°44' W 117°55'1121.4
2017-Sep-24 10:30N 31°35' W 118°01'1121.2
2017-Sep-24 10:00N 31°26' W 118°07'1020.4
2017-Sep-24 09:30N 31°19' W 118°16'1021.0
2017-Sep-24 09:00N 31°11' W 118°24'1121.0
2017-Sep-24 08:30N 31°03' W 118°31'1020.6
2017-Sep-24 08:00N 30°57' W 118°41'1020.6
2017-Sep-24 07:30N 30°51' W 118°52'1020.4
2017-Sep-24 07:00N 30°46' W 119°02'1120.8
2017-Sep-24 06:29N 30°43' W 119°14'8421.3
2017-Sep-24 02:31N 30°21' W 120°48'121.0
2017-Sep-24 02:28N 30°21' W 120°50'1021.0
2017-Sep-24 02:00N 30°18' W 121°00'75819.9
2017-Sep-22 12:00N 27°00' W 134°54'72030.0 060 / 201019.810.8 21.117.426.3
2017-Sep-21 12:00N 23°48' W 147°42'8414.0 050 / 161019.0 22.218.728.6
2017-Sep-21 06:00N 24°06' W 146°12'22618.9 080 / 201019.9 5.4 23.817.828.0
2017-Sep-20 18:00N 23°12' W 150°12'   070 / 181019.010.8 25.017.029.5
2017-Sep-15 17:00N 28°42' W 137°12'   060 / 131023.010.8 22.216.725.2

Dump ship's entire track history